createdAt,value
2019-06-26T00:02:06.857Z,22.35
2019-06-26T00:04:37.666Z,22.29
2019-06-26T00:07:09.457Z,22.27
2019-06-26T00:09:40.187Z,22.27
2019-06-26T00:12:12.493Z,22.14
2019-06-26T00:14:42.973Z,22.13
2019-06-26T00:17:13.338Z,22.09
2019-06-26T00:19:43.759Z,22.10
2019-06-26T00:22:14.591Z,22.03
2019-06-26T00:24:45.087Z,22.02
2019-06-26T00:27:15.946Z,21.94
2019-06-26T00:29:46.324Z,21.89
2019-06-26T00:32:17.204Z,21.84
2019-06-26T00:34:47.211Z,21.85
2019-06-26T00:37:17.959Z,21.82
2019-06-26T00:39:48.507Z,21.73
2019-06-26T00:42:19.309Z,21.70
2019-06-26T00:44:49.493Z,21.74
2019-06-26T00:47:20.072Z,21.70
2019-06-26T00:49:50.718Z,21.69
2019-06-26T00:52:21.451Z,21.63
2019-06-26T00:54:52.012Z,21.57
2019-06-26T00:57:22.947Z,21.51
2019-06-26T00:59:53.733Z,21.46
2019-06-26T01:02:24.365Z,21.41
2019-06-26T01:04:56.197Z,21.37
2019-06-26T01:07:26.380Z,21.33
2019-06-26T01:09:56.673Z,21.33
2019-06-26T01:12:27.417Z,21.33
2019-06-26T01:14:58.258Z,21.28
2019-06-26T01:17:28.677Z,21.29
2019-06-26T01:19:59.294Z,21.29
2019-06-26T01:22:30.052Z,21.23
2019-06-26T01:25:01.093Z,21.19
2019-06-26T01:27:31.278Z,21.16
2019-06-26T01:30:05.245Z,21.12
2019-06-26T01:32:35.938Z,21.11
2019-06-26T01:35:07.985Z,21.08
2019-06-26T01:37:38.537Z,21.02
2019-06-26T01:40:09.392Z,20.97
2019-06-26T01:42:42.708Z,20.99
2019-06-26T01:45:14.639Z,20.92
2019-06-26T01:47:46.001Z,20.89
2019-06-26T01:50:16.517Z,20.84
2019-06-26T01:52:47.127Z,20.87
2019-06-26T01:55:17.604Z,20.86
2019-06-26T01:57:49.352Z,20.88
2019-06-26T02:00:24.539Z,20.88
2019-06-26T02:02:55.303Z,20.92
2019-06-26T02:05:26.338Z,20.87
2019-06-26T02:07:56.967Z,20.88
2019-06-26T02:10:27.497Z,20.85
2019-06-26T02:12:59.277Z,20.80
2019-06-26T02:15:30.203Z,20.82
2019-06-26T02:18:01.062Z,20.80
2019-06-26T02:20:31.986Z,20.75
2019-06-26T02:23:02.452Z,20.73
2019-06-26T02:25:32.794Z,20.63
2019-06-26T02:28:04.007Z,20.65
2019-06-26T02:30:34.940Z,20.66
2019-06-26T02:33:05.650Z,20.63
2019-06-26T02:35:36.077Z,20.67
2019-06-26T02:38:06.517Z,20.60
2019-06-26T02:40:36.719Z,20.55
2019-06-26T02:43:07.470Z,20.50
2019-06-26T02:45:39.221Z,20.43
2019-06-26T02:48:09.730Z,20.44
2019-06-26T02:50:39.822Z,20.47
2019-06-26T02:53:09.847Z,20.45
2019-06-26T02:55:40.934Z,20.45
2019-06-26T02:58:11.345Z,20.45
2019-06-26T03:00:42.433Z,20.41
2019-06-26T03:03:14.560Z,20.37
2019-06-26T03:05:45.404Z,20.40
2019-06-26T03:08:15.629Z,20.39
2019-06-26T03:10:46.355Z,20.39
2019-06-26T03:13:16.875Z,20.44
2019-06-26T03:15:50.522Z,20.44
2019-06-26T03:18:19.737Z,20.50
2019-06-26T03:20:52.104Z,20.51
2019-06-26T03:23:24.237Z,20.59
2019-06-26T03:25:54.961Z,20.58
2019-06-26T03:28:26.271Z,20.62
2019-06-26T03:30:56.574Z,20.62
2019-06-26T03:33:27.607Z,20.65
2019-06-26T03:35:58.215Z,20.73
2019-06-26T03:38:28.468Z,20.74
2019-06-26T03:40:59.369Z,20.80
2019-06-26T03:43:30.211Z,20.80
2019-06-26T03:46:01.146Z,20.88
2019-06-26T03:48:31.558Z,20.91
2019-06-26T03:51:02.059Z,20.99
2019-06-26T03:53:32.621Z,21.09
2019-06-26T03:56:02.958Z,21.18
2019-06-26T03:58:33.959Z,21.24
2019-06-26T04:01:04.704Z,21.26
2019-06-26T04:03:35.008Z,21.31
2019-06-26T04:06:05.534Z,21.36
2019-06-26T04:08:36.619Z,21.44
2019-06-26T04:11:07.087Z,21.53
2019-06-26T04:13:39.317Z,21.60
2019-06-26T04:16:10.076Z,21.66
2019-06-26T04:18:40.478Z,21.70
2019-06-26T04:21:13.061Z,21.80
2019-06-26T04:23:43.960Z,21.89
2019-06-26T04:26:14.723Z,21.98
2019-06-26T04:28:45.678Z,22.06
2019-06-26T04:31:15.920Z,22.20
2019-06-26T04:33:46.429Z,22.31
2019-06-26T04:36:16.883Z,22.44
2019-06-26T04:38:47.161Z,22.56
2019-06-26T04:41:18.364Z,22.71
2019-06-26T04:43:48.825Z,22.86
2019-06-26T04:46:21.958Z,22.98
2019-06-26T04:48:53.625Z,23.13
2019-06-26T04:51:25.709Z,23.25
2019-06-26T04:53:57.148Z,23.33
2019-06-26T04:56:27.711Z,23.43
2019-06-26T04:58:59.444Z,23.52
2019-06-26T05:01:30.217Z,23.60
2019-06-26T05:04:01.237Z,23.74
2019-06-26T05:06:32.515Z,23.86
2019-06-26T05:09:05.602Z,24.03
2019-06-26T05:11:37.092Z,24.16
2019-06-26T05:14:08.401Z,24.34
2019-06-26T05:16:40.991Z,24.45
2019-06-26T05:19:11.453Z,24.53
2019-06-26T05:21:42.632Z,24.61
2019-06-26T05:24:13.441Z,24.74
2019-06-26T05:26:43.774Z,24.83
2019-06-26T05:29:14.738Z,24.94
2019-06-26T05:31:45.190Z,25.05
2019-06-26T05:34:15.793Z,25.13
2019-06-26T05:36:46.328Z,25.24
2019-06-26T05:39:17.315Z,25.35
2019-06-26T05:41:48.308Z,25.49
2019-06-26T05:44:20.714Z,25.62
2019-06-26T05:46:52.029Z,25.77
2019-06-26T05:49:24.066Z,25.89
2019-06-26T05:51:56.317Z,26.03
2019-06-26T05:54:28.439Z,26.16
2019-06-26T05:57:01.050Z,26.30
2019-06-26T05:59:32.568Z,26.43
2019-06-26T06:02:03.603Z,26.57
2019-06-26T06:04:35.191Z,26.74
2019-06-26T06:07:06.893Z,26.89
2019-06-26T06:09:37.687Z,27.04
2019-06-26T06:12:11.730Z,27.19
2019-06-26T06:14:43.662Z,27.33
2019-06-26T06:17:14.087Z,27.49
2019-06-26T06:19:45.580Z,27.67
2019-06-26T06:22:18.891Z,27.83
2019-06-26T06:24:50.947Z,27.99
2019-06-26T06:27:22.690Z,28.08
2019-06-26T06:29:54.778Z,28.18
2019-06-26T06:32:30.526Z,28.28
2019-06-26T06:35:02.099Z,28.41
2019-06-26T06:37:34.333Z,28.58
2019-06-26T06:40:07.032Z,28.70
2019-06-26T06:42:38.808Z,28.84
2019-06-26T06:45:11.330Z,28.98
2019-06-26T06:47:43.358Z,29.10
2019-06-26T06:50:15.680Z,29.12
2019-06-26T06:52:47.474Z,29.23
2019-06-26T06:55:19.425Z,29.33
2019-06-26T06:57:54.164Z,29.45
2019-06-26T07:00:24.837Z,29.59
2019-06-26T07:02:56.710Z,29.60
2019-06-26T07:05:30.015Z,29.73
2019-06-26T07:08:02.317Z,29.86
2019-06-26T07:10:34.408Z,29.94
2019-06-26T07:13:06.845Z,30.08
2019-06-26T07:15:37.500Z,30.22
2019-06-26T07:18:08.892Z,30.30
2019-06-26T07:20:40.284Z,30.41
2019-06-26T07:23:12.350Z,30.57
2019-06-26T07:25:45.421Z,30.62
2019-06-26T07:28:17.915Z,30.66
2019-06-26T07:30:49.049Z,30.79
2019-06-26T07:33:21.046Z,30.93
2019-06-26T07:35:52.122Z,31.03
2019-06-26T07:38:24.038Z,31.15
2019-06-26T07:40:55.910Z,31.33
2019-06-26T07:43:27.427Z,31.44
2019-06-26T07:45:58.380Z,31.57
2019-06-26T07:48:29.585Z,31.73
2019-06-26T07:51:01.006Z,31.81
2019-06-26T07:53:39.831Z,31.95
2019-06-26T07:56:10.918Z,32.06
2019-06-26T07:58:44.435Z,32.22
2019-06-26T08:01:16.867Z,32.28
2019-06-26T08:03:47.879Z,32.39
2019-06-26T08:06:19.671Z,32.37
2019-06-26T08:08:53.836Z,32.47
2019-06-26T08:11:25.663Z,32.52
2019-06-26T08:14:00.408Z,32.67
2019-06-26T08:16:42.658Z,32.76
2019-06-26T08:19:26.475Z,32.89
2019-06-26T08:22:04.505Z,32.99
2019-06-26T08:24:53.241Z,33.05
2019-06-26T08:27:30.986Z,33.20
2019-06-26T08:30:02.580Z,33.38
2019-06-26T08:32:34.219Z,33.46
2019-06-26T08:35:05.995Z,33.61
2019-06-26T08:37:45.638Z,33.79
2019-06-26T08:40:18.508Z,33.80
2019-06-26T08:42:49.708Z,33.76
2019-06-26T08:45:32.110Z,33.77
2019-06-26T08:48:34.920Z,33.94
2019-06-26T08:50:50.643Z,34.11
2019-06-26T08:53:22.348Z,34.29
2019-06-26T08:55:53.738Z,34.38
2019-06-26T08:58:25.064Z,34.40
2019-06-26T09:00:56.214Z,34.56
2019-06-26T09:03:27.375Z,34.66
2019-06-26T09:05:58.513Z,34.81
2019-06-26T09:08:30.226Z,34.73
2019-06-26T09:11:02.044Z,34.70
2019-06-26T09:13:33.248Z,34.73
2019-06-26T09:16:04.251Z,34.97
2019-06-26T09:18:36.220Z,35.03
2019-06-26T09:21:07.653Z,35.25
2019-06-26T09:23:40.155Z,35.26
2019-06-26T09:26:11.822Z,35.16
2019-06-26T09:28:43.660Z,35.16
2019-06-26T09:31:15.661Z,35.00
2019-06-26T09:33:46.766Z,35.24
2019-06-26T09:36:19.276Z,35.28
2019-06-26T09:38:50.329Z,35.42
2019-06-26T09:41:22.927Z,35.51
2019-06-26T09:43:53.772Z,35.79
2019-06-26T09:46:28.612Z,35.79
2019-06-26T09:49:00.585Z,35.87
2019-06-26T09:51:32.954Z,35.96
2019-06-26T09:54:04.370Z,36.08
2019-06-26T09:56:35.216Z,36.15
2019-06-26T09:59:06.982Z,36.23
2019-06-26T10:01:37.947Z,36.24
2019-06-26T10:04:08.694Z,35.92
2019-06-26T10:06:39.941Z,35.90
2019-06-26T10:09:11.098Z,36.01
2019-06-26T10:11:42.598Z,36.22
2019-06-26T10:14:14.003Z,36.30
2019-06-26T10:16:45.410Z,36.26
2019-06-26T10:19:16.554Z,36.19
2019-06-26T10:21:47.940Z,36.34
2019-06-26T10:24:19.899Z,36.51
2019-06-26T10:26:51.012Z,36.68
2019-06-26T10:29:21.876Z,36.91
2019-06-26T10:31:52.673Z,36.98
2019-06-26T10:34:28.173Z,36.75
2019-06-26T10:37:00.195Z,36.64
2019-06-26T10:39:31.438Z,36.80
2019-06-26T10:42:07.646Z,36.87
2019-06-26T10:44:39.375Z,36.98
2019-06-26T10:47:15.463Z,36.98
2019-06-26T10:49:47.864Z,36.95
2019-06-26T10:52:19.838Z,37.15
2019-06-26T10:54:53.619Z,37.29
2019-06-26T10:57:24.855Z,37.43
2019-06-26T10:59:56.085Z,37.51
2019-06-26T11:02:27.397Z,37.51
2019-06-26T11:04:58.741Z,37.57
2019-06-26T11:07:30.022Z,37.26
2019-06-26T11:10:02.049Z,37.45
2019-06-26T11:12:33.086Z,37.62
2019-06-26T11:15:05.588Z,37.77
2019-06-26T11:17:36.569Z,37.60
2019-06-26T11:20:08.499Z,37.61
2019-06-26T11:22:40.215Z,37.57
2019-06-26T11:25:11.108Z,37.35
2019-06-26T11:27:43.104Z,37.45
2019-06-26T11:30:14.127Z,37.14
2019-06-26T11:32:44.914Z,37.30
2019-06-26T11:35:16.717Z,37.50
2019-06-26T11:37:47.679Z,37.62
2019-06-26T11:40:20.574Z,37.82
2019-06-26T11:42:51.944Z,37.89
2019-06-26T11:45:23.106Z,37.96
2019-06-26T11:47:55.082Z,38.00
2019-06-26T11:50:26.346Z,38.01
2019-06-26T11:52:57.589Z,38.12
2019-06-26T11:55:29.715Z,38.18
2019-06-26T11:58:01.600Z,38.23
2019-06-26T12:00:33.010Z,38.30
2019-06-26T12:03:04.525Z,38.39
2019-06-26T12:05:35.378Z,38.12
2019-06-26T12:08:07.141Z,38.06
2019-06-26T12:10:38.710Z,37.99
2019-06-26T12:13:09.910Z,37.98
2019-06-26T12:15:40.700Z,37.99
2019-06-26T12:18:12.144Z,38.04
2019-06-26T12:20:43.063Z,37.98
2019-06-26T12:23:15.027Z,38.05
2019-06-26T12:25:45.687Z,38.08
2019-06-26T12:28:16.769Z,38.31
2019-06-26T12:30:48.317Z,38.31
2019-06-26T12:33:19.507Z,38.42
2019-06-26T12:35:51.372Z,38.20
2019-06-26T12:38:22.727Z,38.24
2019-06-26T12:40:55.608Z,38.28
2019-06-26T12:43:28.606Z,38.24
2019-06-26T12:45:59.486Z,38.12
2019-06-26T12:48:31.114Z,38.11
2019-06-26T12:51:01.666Z,38.05
2019-06-26T12:53:33.479Z,38.17
2019-06-26T12:56:05.118Z,38.20
2019-06-26T12:58:36.177Z,38.38
2019-06-26T13:01:07.671Z,38.36
2019-06-26T13:03:38.086Z,38.32
2019-06-26T13:06:10.146Z,38.36
2019-06-26T13:08:40.751Z,38.49
2019-06-26T13:11:11.789Z,38.54
2019-06-26T13:13:44.084Z,38.46
2019-06-26T13:16:14.288Z,38.41
2019-06-26T13:18:45.286Z,38.48
2019-06-26T13:21:16.849Z,38.57
2019-06-26T13:23:48.464Z,38.58
2019-06-26T13:26:19.874Z,38.63
2019-06-26T13:28:50.594Z,38.60
2019-06-26T13:31:21.363Z,38.54
2019-06-26T13:33:52.408Z,38.57
2019-06-26T13:36:23.262Z,38.61
2019-06-26T13:38:54.216Z,38.52
2019-06-26T13:41:25.022Z,38.53
2019-06-26T13:43:59.943Z,38.52
2019-06-26T13:46:29.148Z,38.57
2019-06-26T13:48:59.509Z,38.63
2019-06-26T13:51:30.124Z,38.72
2019-06-26T13:54:01.054Z,38.73
2019-06-26T13:56:31.249Z,38.70
2019-06-26T13:59:01.344Z,38.63
2019-06-26T14:01:31.995Z,38.66
2019-06-26T14:04:01.913Z,38.78
2019-06-26T14:06:31.812Z,38.90
2019-06-26T14:09:02.047Z,39.01
2019-06-26T14:11:33.501Z,38.98
2019-06-26T14:14:03.822Z,38.84
2019-06-26T14:16:34.867Z,38.82
2019-06-26T14:19:05.157Z,38.72
2019-06-26T14:21:35.436Z,38.83
2019-06-26T14:24:05.646Z,38.91
2019-06-26T14:26:35.632Z,39.05
2019-06-26T14:29:20.010Z,38.99
2019-06-26T14:31:37.428Z,38.82
2019-06-26T14:34:07.794Z,38.68
2019-06-26T14:36:37.753Z,38.60
2019-06-26T14:39:07.915Z,38.73
2019-06-26T14:41:39.338Z,38.72
2019-06-26T14:44:09.564Z,38.74
2019-06-26T14:46:41.419Z,38.60
2019-06-26T14:49:15.432Z,38.36
2019-06-26T14:51:47.778Z,38.18
2019-06-26T14:54:17.206Z,38.26
2019-06-26T14:56:47.429Z,38.28
2019-06-26T14:59:17.688Z,38.19
2019-06-26T15:01:47.782Z,38.31
2019-06-26T15:04:17.879Z,38.35
2019-06-26T15:06:47.919Z,38.47
2019-06-26T15:09:20.724Z,38.54
2019-06-26T15:11:54.609Z,38.22
2019-06-26T15:14:24.710Z,37.80
2019-06-26T15:16:54.751Z,37.96
2019-06-26T15:19:24.752Z,38.13
2019-06-26T15:21:58.770Z,38.22
2019-06-26T15:24:26.629Z,37.90
2019-06-26T15:26:57.027Z,37.75
2019-06-26T15:29:26.943Z,37.74
2019-06-26T15:31:57.719Z,37.93
2019-06-26T15:34:27.825Z,37.90
2019-06-26T15:36:57.839Z,37.97
2019-06-26T15:39:28.234Z,37.95
2019-06-26T15:41:58.468Z,38.03
2019-06-26T15:44:28.720Z,37.99
2019-06-26T15:46:58.995Z,37.98
2019-06-26T15:49:29.304Z,37.98
2019-06-26T15:52:14.171Z,37.96
2019-06-26T15:54:36.162Z,37.86
2019-06-26T15:57:06.314Z,37.87
2019-06-26T15:59:36.623Z,37.74
2019-06-26T16:02:07.472Z,37.62
2019-06-26T16:04:40.914Z,37.56
2019-06-26T16:07:11.849Z,37.37
2019-06-26T16:09:42.149Z,37.43
2019-06-26T16:12:12.728Z,37.59
2019-06-26T16:14:43.402Z,37.67
2019-06-26T16:17:15.226Z,37.64
2019-06-26T16:19:46.369Z,37.63
2019-06-26T16:22:31.121Z,37.43
2019-06-26T16:24:48.423Z,37.45
2019-06-26T16:27:37.608Z,37.44
2019-06-26T16:30:13.493Z,37.54
2019-06-26T16:33:00.282Z,37.59
2019-06-26T16:35:31.958Z,37.51
2019-06-26T16:38:02.061Z,37.47
2019-06-26T16:40:33.149Z,37.37
2019-06-26T16:43:03.741Z,37.35
2019-06-26T16:45:33.774Z,37.45
2019-06-26T16:48:04.267Z,37.47
2019-06-26T16:50:35.065Z,37.44
2019-06-26T16:53:05.423Z,37.36
2019-06-26T16:55:35.724Z,37.14
2019-06-26T16:58:06.047Z,37.07
2019-06-26T17:00:36.425Z,37.11
2019-06-26T17:03:06.329Z,37.03
2019-06-26T17:05:36.649Z,36.89
2019-06-26T17:08:06.722Z,36.73
2019-06-26T17:10:36.754Z,36.53
2019-06-26T17:13:06.933Z,36.42
2019-06-26T17:15:36.846Z,36.39
2019-06-26T17:18:11.598Z,36.34
2019-06-26T17:20:44.430Z,36.28
2019-06-26T17:23:17.156Z,36.19
2019-06-26T17:25:51.148Z,36.15
2019-06-26T17:28:56.115Z,36.10
2019-06-26T17:31:47.892Z,36.09
2019-06-26T17:34:19.802Z,36.11
2019-06-26T17:37:02.332Z,36.09
2019-06-26T17:39:38.623Z,36.03
2019-06-26T17:42:08.938Z,36.05
2019-06-26T17:44:38.959Z,35.97
2019-06-26T17:47:21.096Z,35.87
2019-06-26T17:50:25.101Z,35.78
2019-06-26T17:53:22.333Z,35.61
2019-06-26T17:56:22.855Z,35.39
2019-06-26T17:58:58.605Z,35.21
2019-06-26T18:01:33.281Z,34.90
2019-06-26T18:04:25.776Z,34.96
2019-06-26T18:06:58.059Z,34.88
2019-06-26T18:10:08.867Z,34.85
2019-06-26T18:12:55.439Z,34.68
2019-06-26T18:19:31.403Z,34.59
2019-06-26T18:26:16.858Z,34.48
2019-06-26T18:29:34.552Z,34.31
2019-06-26T18:39:27.883Z,33.86
2019-06-26T18:42:04.280Z,33.66
2019-06-26T18:44:37.491Z,33.56
2019-06-26T18:47:10.554Z,33.56
2019-06-26T18:49:42.598Z,33.57
2019-06-26T18:52:15.075Z,33.50
2019-06-26T18:55:04.421Z,33.54
2019-06-26T18:57:52.208Z,33.44
2019-06-26T19:00:46.106Z,33.27
2019-06-26T19:03:43.259Z,33.12
2019-06-26T19:06:20.567Z,33.01
2019-06-26T19:09:11.190Z,32.88
2019-06-26T19:12:35.966Z,32.70
2019-06-26T19:15:28.706Z,32.56
2019-06-26T19:21:19.028Z,32.34
2019-06-26T19:24:19.131Z,32.16
2019-06-26T19:27:01.622Z,31.98
2019-06-26T19:29:50.246Z,31.83
2019-06-26T19:33:05.310Z,31.68
2019-06-26T19:36:06.374Z,31.52
2019-06-26T19:39:29.327Z,31.58
2019-06-26T19:42:15.787Z,31.67
2019-06-26T19:45:13.639Z,31.77
2019-06-26T19:47:57.746Z,31.83
2019-06-26T19:50:42.385Z,31.86
2019-06-26T19:53:24.745Z,31.92
2019-06-26T19:55:57.025Z,31.92
2019-06-26T19:58:29.636Z,31.86
2019-06-26T20:01:11.190Z,31.82
2019-06-26T20:04:08.167Z,31.77
2019-06-26T20:07:06.460Z,31.69
2019-06-26T20:09:51.631Z,31.63
2019-06-26T20:12:31.640Z,31.57
2019-06-26T20:15:25.521Z,31.51
2019-06-26T20:18:40.090Z,31.45
2019-06-26T20:21:30.544Z,31.35
2019-06-26T20:24:44.744Z,31.28
2019-06-26T20:27:32.855Z,31.27
2019-06-26T20:30:09.694Z,31.18
2019-06-26T20:32:41.547Z,31.08
2019-06-26T20:35:14.107Z,31.04
2019-06-26T20:37:44.650Z,31.02
2019-06-26T20:40:16.173Z,30.97
2019-06-26T20:42:48.607Z,30.87
2019-06-26T20:45:22.113Z,30.82
2019-06-26T20:47:55.069Z,30.73
2019-06-26T20:50:28.992Z,30.67
2019-06-26T20:53:01.395Z,30.57
2019-06-26T20:55:33.486Z,30.45
2019-06-26T20:58:05.316Z,30.37
2019-06-26T21:00:37.162Z,30.26
2019-06-26T21:03:07.931Z,30.20
2019-06-26T21:05:39.374Z,30.10
2019-06-26T21:08:11.593Z,30.03
2019-06-26T21:10:43.508Z,29.95
2019-06-26T21:13:14.101Z,29.78
2019-06-26T21:15:45.188Z,29.71
2019-06-26T21:18:16.866Z,29.53
2019-06-26T21:20:47.858Z,29.37
2019-06-26T21:23:19.215Z,29.32
2019-06-26T21:25:50.955Z,29.21
2019-06-26T21:28:21.659Z,29.18
2019-06-26T21:30:52.773Z,29.11
2019-06-26T21:33:24.266Z,29.01
2019-06-26T21:35:55.463Z,28.91
2019-06-26T21:38:26.288Z,28.87
2019-06-26T21:40:57.909Z,28.79
2019-06-26T21:43:28.357Z,28.70
2019-06-26T21:45:59.422Z,28.66
2019-06-26T21:48:31.218Z,28.57
2019-06-26T21:51:02.501Z,28.53
2019-06-26T21:53:33.554Z,28.42
2019-06-26T21:56:06.140Z,28.34
2019-06-26T21:58:37.992Z,28.35
2019-06-26T22:01:10.888Z,28.29
2019-06-26T22:03:44.012Z,28.15
2019-06-26T22:06:16.686Z,28.12
2019-06-26T22:08:49.367Z,28.10
2019-06-26T22:11:22.158Z,28.08
2019-06-26T22:13:53.584Z,28.03
2019-06-26T22:16:24.794Z,27.96
2019-06-26T22:18:55.945Z,27.88
2019-06-26T22:21:27.310Z,27.78
2019-06-26T22:23:57.621Z,27.76
2019-06-26T22:26:29.095Z,27.70
2019-06-26T22:29:00.410Z,27.66
2019-06-26T22:31:31.301Z,27.61
2019-06-26T22:34:02.941Z,27.52
2019-06-26T22:36:35.170Z,27.41
2019-06-26T22:39:07.065Z,27.31
2019-06-26T22:41:38.383Z,27.21
2019-06-26T22:44:09.036Z,27.21
2019-06-26T22:46:40.353Z,27.11
2019-06-26T22:49:11.612Z,27.07
2019-06-26T22:51:42.868Z,27.00
2019-06-26T22:54:14.527Z,26.97
2019-06-26T22:56:45.304Z,26.87
2019-06-26T22:59:18.504Z,26.85
2019-06-26T23:01:49.183Z,26.87
2019-06-26T23:04:20.587Z,26.86
2019-06-26T23:06:51.624Z,26.82
2019-06-26T23:09:24.147Z,26.73
2019-06-26T23:11:55.189Z,26.59
2019-06-26T23:14:27.227Z,26.57
2019-06-26T23:16:57.823Z,26.60
2019-06-26T23:19:29.230Z,26.48
2019-06-26T23:22:00.967Z,26.40
2019-06-26T23:24:31.825Z,26.24
2019-06-26T23:27:02.824Z,26.14
2019-06-26T23:29:34.379Z,26.10
2019-06-26T23:32:04.771Z,25.98
2019-06-26T23:34:36.376Z,25.94
2019-06-26T23:37:07.449Z,25.87
2019-06-26T23:39:38.893Z,25.83
2019-06-26T23:42:10.139Z,25.78
2019-06-26T23:44:41.956Z,25.73
2019-06-26T23:47:13.041Z,25.70
2019-06-26T23:49:43.584Z,25.64
2019-06-26T23:52:14.890Z,25.55
2019-06-26T23:54:45.560Z,25.53
2019-06-26T23:57:16.323Z,25.45
2019-06-26T23:59:47.029Z,25.41
